METAR Data
IDs: Format: Raw Decoded Include TAF

Data at: 0741 UTC 01 Aug 2021

UUOB 010730Z 11002MPS CAVOK 30/15 Q1013 R29/010060 NOSIG